sensor_id;sensor_type;location;lat;lon;timestamp;pressure;altitude;pressure_sealevel;temperature;humidity
19751;BME280;4663;49.120;9.730;2023-09-19T00:01:31;97627.84;;;19.20;75.83
19751;BME280;4663;49.120;9.730;2023-09-19T00:03:57;97628.84;;;19.26;75.84
19751;BME280;4663;49.120;9.730;2023-09-19T00:06:23;97630.63;;;19.51;74.21
19751;BME280;4663;49.120;9.730;2023-09-19T00:08:51;97631.34;;;19.27;75.25
19751;BME280;4663;49.120;9.730;2023-09-19T00:11:16;97641.59;;;19.44;74.60
19751;BME280;4663;49.120;9.730;2023-09-19T00:13:41;97640.56;;;19.26;74.90
19751;BME280;4663;49.120;9.730;2023-09-19T00:16:09;97637.19;;;19.06;75.98
19751;BME280;4663;49.120;9.730;2023-09-19T00:18:36;97634.50;;;19.43;75.10
19751;BME280;4663;49.120;9.730;2023-09-19T00:21:02;97638.28;;;19.42;73.68
19751;BME280;4663;49.120;9.730;2023-09-19T00:23:29;97647.50;;;19.41;75.67
19751;BME280;4663;49.120;9.730;2023-09-19T00:25:59;97641.00;;;19.23;75.78
19751;BME280;4663;49.120;9.730;2023-09-19T00:28:24;97641.28;;;18.96;76.46
19751;BME280;4663;49.120;9.730;2023-09-19T00:30:50;97632.09;;;19.16;76.54
19751;BME280;4663;49.120;9.730;2023-09-19T00:33:15;97632.59;;;19.44;75.49
19751;BME280;4663;49.120;9.730;2023-09-19T00:35:51;97639.47;;;19.09;76.35
19751;BME280;4663;49.120;9.730;2023-09-19T00:38:17;97641.28;;;18.96;77.33
19751;BME280;4663;49.120;9.730;2023-09-19T00:40:46;97644.91;;;19.09;76.38
19751;BME280;4663;49.120;9.730;2023-09-19T00:43:12;97645.69;;;19.16;77.31
19751;BME280;4663;49.120;9.730;2023-09-19T00:45:38;97647.44;;;19.29;75.93
19751;BME280;4663;49.120;9.730;2023-09-19T00:48:04;97647.19;;;19.31;76.03
19751;BME280;4663;49.120;9.730;2023-09-19T00:50:31;97655.31;;;18.93;77.69
19751;BME280;4663;49.120;9.730;2023-09-19T00:52:58;97654.41;;;18.99;77.93
19751;BME280;4663;49.120;9.730;2023-09-19T00:55:25;97645.75;;;19.47;76.12
19751;BME280;4663;49.120;9.730;2023-09-19T00:57:51;97656.41;;;19.30;77.26
19751;BME280;4663;49.120;9.730;2023-09-19T01:00:18;97655.66;;;19.22;77.02
19751;BME280;4663;49.120;9.730;2023-09-19T01:02:45;97655.59;;;19.29;77.28
19751;BME280;4663;49.120;9.730;2023-09-19T01:05:11;97662.16;;;18.96;77.87
19751;BME280;4663;49.120;9.730;2023-09-19T01:07:41;97661.69;;;19.24;76.78
19751;BME280;4663;49.120;9.730;2023-09-19T01:10:09;97664.78;;;19.28;77.43
19751;BME280;4663;49.120;9.730;2023-09-19T01:15:22;97666.81;;;19.33;77.30
19751;BME280;4663;49.120;9.730;2023-09-19T01:18:07;97669.81;;;19.06;77.81
19751;BME280;4663;49.120;9.730;2023-09-19T01:20:55;97666.28;;;19.05;77.67
19751;BME280;4663;49.120;9.730;2023-09-19T01:32:08;97677.00;;;18.68;78.79
19751;BME280;4663;49.120;9.730;2023-09-19T01:34:47;97675.09;;;19.00;77.83
19751;BME280;4663;49.120;9.730;2023-09-19T01:37:17;97669.28;;;18.71;78.85
19751;BME280;4663;49.120;9.730;2023-09-19T01:39:52;97672.03;;;18.90;78.11
19751;BME280;4663;49.120;9.730;2023-09-19T01:42:28;97677.31;;;18.85;78.11
19751;BME280;4663;49.120;9.730;2023-09-19T01:47:28;97682.31;;;18.30;80.13
19751;BME280;4663;49.120;9.730;2023-09-19T01:50:34;97682.97;;;19.09;77.58
19751;BME280;4663;49.120;9.730;2023-09-19T01:53:02;97685.22;;;18.61;79.02
19751;BME280;4663;49.120;9.730;2023-09-19T01:55:30;97690.63;;;18.93;77.94
19751;BME280;4663;49.120;9.730;2023-09-19T01:58:07;97697.31;;;18.33;80.00
19751;BME280;4663;49.120;9.730;2023-09-19T02:00:36;97686.06;;;18.61;78.74
19751;BME280;4663;49.120;9.730;2023-09-19T02:03:03;97699.00;;;18.92;77.76
19751;BME280;4663;49.120;9.730;2023-09-19T02:05:28;97702.41;;;18.55;78.58
19751;BME280;4663;49.120;9.730;2023-09-19T02:07:54;97689.69;;;18.81;77.93
19751;BME280;4663;49.120;9.730;2023-09-19T02:10:21;97698.13;;;18.40;79.30
19751;BME280;4663;49.120;9.730;2023-09-19T02:12:46;97708.00;;;18.60;78.86
19751;BME280;4663;49.120;9.730;2023-09-19T02:15:12;97701.44;;;18.74;78.03
19751;BME280;4663;49.120;9.730;2023-09-19T02:17:38;97700.91;;;18.59;78.71
19751;BME280;4663;49.120;9.730;2023-09-19T02:20:03;97700.78;;;19.05;77.43
19751;BME280;4663;49.120;9.730;2023-09-19T02:22:36;97705.56;;;18.52;78.46
19751;BME280;4663;49.120;9.730;2023-09-19T02:25:02;97713.63;;;18.33;78.92
19751;BME280;4663;49.120;9.730;2023-09-19T02:27:30;97716.22;;;18.85;77.75
19751;BME280;4663;49.120;9.730;2023-09-19T02:29:56;97717.72;;;18.42;78.67
19751;BME280;4663;49.120;9.730;2023-09-19T02:32:21;97714.78;;;18.83;78.12
19751;BME280;4663;49.120;9.730;2023-09-19T02:34:46;97717.28;;;18.78;77.84
19751;BME280;4663;49.120;9.730;2023-09-19T02:37:12;97712.94;;;18.70;77.75
19751;BME280;4663;49.120;9.730;2023-09-19T02:39:38;97717.09;;;18.72;77.88
19751;BME280;4663;49.120;9.730;2023-09-19T02:42:04;97707.16;;;18.92;77.59
19751;BME280;4663;49.120;9.730;2023-09-19T02:44:30;97717.38;;;18.64;77.95
19751;BME280;4663;49.120;9.730;2023-09-19T02:46:56;97705.41;;;18.79;77.65
19751;BME280;4663;49.120;9.730;2023-09-19T02:49:22;97717.94;;;18.73;77.73
19751;BME280;4663;49.120;9.730;2023-09-19T02:51:48;97733.78;;;18.11;79.41
19751;BME280;4663;49.120;9.730;2023-09-19T02:54:14;97737.91;;;18.21;79.32
19751;BME280;4663;49.120;9.730;2023-09-19T02:56:41;97738.63;;;18.42;78.49
19751;BME280;4663;49.120;9.730;2023-09-19T02:59:06;97738.13;;;18.19;78.81
19751;BME280;4663;49.120;9.730;2023-09-19T03:01:32;97735.84;;;18.16;79.22
19751;BME280;4663;49.120;9.730;2023-09-19T03:03:58;97738.97;;;18.13;78.95
19751;BME280;4663;49.120;9.730;2023-09-19T03:06:24;97730.25;;;18.11;78.38
19751;BME280;4663;49.120;9.730;2023-09-19T03:08:50;97739.38;;;18.23;78.98
19751;BME280;4663;49.120;9.730;2023-09-19T03:11:16;97745.47;;;18.12;79.10
19751;BME280;4663;49.120;9.730;2023-09-19T03:13:50;97743.59;;;18.06;78.95
19751;BME280;4663;49.120;9.730;2023-09-19T03:16:15;97742.28;;;18.22;78.84
19751;BME280;4663;49.120;9.730;2023-09-19T03:18:41;97750.50;;;18.02;79.28
19751;BME280;4663;49.120;9.730;2023-09-19T03:21:07;97749.53;;;18.35;78.13
19751;BME280;4663;49.120;9.730;2023-09-19T03:23:32;97754.53;;;17.92;78.76
19751;BME280;4663;49.120;9.730;2023-09-19T03:25:57;97743.66;;;18.38;77.89
19751;BME280;4663;49.120;9.730;2023-09-19T03:28:24;97745.50;;;18.05;79.17
19751;BME280;4663;49.120;9.730;2023-09-19T03:31:03;97751.34;;;18.02;79.81
19751;BME280;4663;49.120;9.730;2023-09-19T03:33:29;97752.16;;;18.09;79.17
19751;BME280;4663;49.120;9.730;2023-09-19T03:35:59;97759.97;;;18.31;78.52
19751;BME280;4663;49.120;9.730;2023-09-19T03:38:26;97753.50;;;18.32;78.06
19751;BME280;4663;49.120;9.730;2023-09-19T03:40:51;97754.06;;;18.41;78.44
19751;BME280;4663;49.120;9.730;2023-09-19T03:43:17;97755.13;;;18.72;76.72
19751;BME280;4663;49.120;9.730;2023-09-19T03:45:42;97759.16;;;18.24;78.50
19751;BME280;4663;49.120;9.730;2023-09-19T03:48:11;97754.06;;;18.41;78.01
19751;BME280;4663;49.120;9.730;2023-09-19T03:50:37;97748.59;;;18.55;77.90
19751;BME280;4663;49.120;9.730;2023-09-19T03:53:03;97751.28;;;18.55;78.33
19751;BME280;4663;49.120;9.730;2023-09-19T03:55:29;97757.22;;;18.77;77.89
19751;BME280;4663;49.120;9.730;2023-09-19T03:57:55;97767.31;;;18.31;78.60
19751;BME280;4663;49.120;9.730;2023-09-19T04:00:21;97753.25;;;18.80;77.34
19751;BME280;4663;49.120;9.730;2023-09-19T04:02:49;97753.22;;;18.47;77.95
19751;BME280;4663;49.120;9.730;2023-09-19T04:05:14;97753.13;;;18.61;78.29
19751;BME280;4663;49.120;9.730;2023-09-19T04:07:40;97757.91;;;18.27;78.71
19751;BME280;4663;49.120;9.730;2023-09-19T04:10:05;97763.78;;;18.23;78.86
19751;BME280;4663;49.120;9.730;2023-09-19T04:12:33;97761.81;;;18.76;77.40
19751;BME280;4663;49.120;9.730;2023-09-19T04:14:59;97762.13;;;18.61;77.92
19751;BME280;4663;49.120;9.730;2023-09-19T04:17:24;97768.38;;;18.23;78.27
19751;BME280;4663;49.120;9.730;2023-09-19T04:19:49;97775.25;;;18.25;79.17
19751;BME280;4663;49.120;9.730;2023-09-19T04:22:15;97777.09;;;18.32;78.89
19751;BME280;4663;49.120;9.730;2023-09-19T04:24:40;97772.41;;;18.07;79.25
19751;BME280;4663;49.120;9.730;2023-09-19T04:27:06;97771.25;;;18.35;78.96
19751;BME280;4663;49.120;9.730;2023-09-19T04:29:32;97771.59;;;18.45;78.84
19751;BME280;4663;49.120;9.730;2023-09-19T04:31:57;97767.34;;;18.17;78.69
19751;BME280;4663;49.120;9.730;2023-09-19T04:34:23;97785.50;;;18.17;79.73
19751;BME280;4663;49.120;9.730;2023-09-19T04:36:49;97781.50;;;18.65;77.37
19751;BME280;4663;49.120;9.730;2023-09-19T04:39:14;97781.66;;;18.70;77.32
19751;BME280;4663;49.120;9.730;2023-09-19T04:41:40;97790.63;;;18.38;78.59
19751;BME280;4663;49.120;9.730;2023-09-19T04:44:06;97788.69;;;18.53;77.61
19751;BME280;4663;49.120;9.730;2023-09-19T04:46:33;97802.81;;;18.22;79.04
19751;BME280;4663;49.120;9.730;2023-09-19T04:48:58;97795.22;;;18.45;78.07
19751;BME280;4663;49.120;9.730;2023-09-19T04:51:24;97797.78;;;18.33;78.33
19751;BME280;4663;49.120;9.730;2023-09-19T04:53:50;97805.31;;;18.31;78.38
19751;BME280;4663;49.120;9.730;2023-09-19T04:56:16;97795.78;;;18.54;77.85
19751;BME280;4663;49.120;9.730;2023-09-19T04:58:41;97800.72;;;18.24;79.13
19751;BME280;4663;49.120;9.730;2023-09-19T05:01:07;97808.41;;;18.34;77.99
19751;BME280;4663;49.120;9.730;2023-09-19T05:03:36;97813.31;;;18.58;78.07
19751;BME280;4663;49.120;9.730;2023-09-19T05:06:02;97814.47;;;18.30;78.62
19751;BME280;4663;49.120;9.730;2023-09-19T05:08:27;97809.72;;;18.64;77.15
19751;BME280;4663;49.120;9.730;2023-09-19T05:10:53;97820.13;;;18.35;78.67
19751;BME280;4663;49.120;9.730;2023-09-19T05:13:18;97805.53;;;18.68;77.59
19751;BME280;4663;49.120;9.730;2023-09-19T05:15:43;97816.38;;;18.22;78.87
19751;BME280;4663;49.120;9.730;2023-09-19T05:18:09;97812.31;;;18.91;77.45
19751;BME280;4663;49.120;9.730;2023-09-19T05:20:35;97818.31;;;18.61;77.96
19751;BME280;4663;49.120;9.730;2023-09-19T05:23:04;97817.69;;;18.59;77.44
19751;BME280;4663;49.120;9.730;2023-09-19T05:25:33;97831.41;;;18.32;79.45
19751;BME280;4663;49.120;9.730;2023-09-19T05:28:02;97833.06;;;18.72;77.49
19751;BME280;4663;49.120;9.730;2023-09-19T05:30:31;97825.75;;;18.72;77.56
19751;BME280;4663;49.120;9.730;2023-09-19T05:32:57;97826.88;;;18.65;77.58
19751;BME280;4663;49.120;9.730;2023-09-19T05:35:24;97841.41;;;18.31;78.64
19751;BME280;4663;49.120;9.730;2023-09-19T05:37:53;97841.75;;;18.48;77.61
19751;BME280;4663;49.120;9.730;2023-09-19T05:40:20;97845.88;;;18.58;77.59
19751;BME280;4663;49.120;9.730;2023-09-19T05:42:46;97838.53;;;18.65;76.60
19751;BME280;4663;49.120;9.730;2023-09-19T05:45:12;97852.22;;;18.91;76.40
19751;BME280;4663;49.120;9.730;2023-09-19T05:47:41;97852.59;;;18.55;77.53
19751;BME280;4663;49.120;9.730;2023-09-19T05:50:08;97843.28;;;18.37;77.38
19751;BME280;4663;49.120;9.730;2023-09-19T05:52:34;97845.34;;;19.20;76.00
19751;BME280;4663;49.120;9.730;2023-09-19T05:55:00;97853.25;;;18.44;77.56
19751;BME280;4663;49.120;9.730;2023-09-19T05:57:25;97855.25;;;18.75;76.83
19751;BME280;4663;49.120;9.730;2023-09-19T05:59:51;97855.00;;;18.70;76.66
19751;BME280;4663;49.120;9.730;2023-09-19T06:02:16;97862.19;;;19.04;75.81
19751;BME280;4663;49.120;9.730;2023-09-19T06:04:41;97859.47;;;18.65;75.84
19751;BME280;4663;49.120;9.730;2023-09-19T06:07:07;97869.41;;;19.17;74.64
19751;BME280;4663;49.120;9.730;2023-09-19T06:09:32;97868.69;;;19.53;75.04
19751;BME280;4663;49.120;9.730;2023-09-19T06:11:58;97873.13;;;19.80;75.10
19751;BME280;4663;49.120;9.730;2023-09-19T06:14:29;97858.09;;;19.45;72.88
19751;BME280;4663;49.120;9.730;2023-09-19T06:16:54;97873.28;;;20.04;73.54
19751;BME280;4663;49.120;9.730;2023-09-19T06:19:20;97872.03;;;19.81;72.25
19751;BME280;4663;49.120;9.730;2023-09-19T06:21:48;97873.94;;;19.81;72.82
19751;BME280;4663;49.120;9.730;2023-09-19T06:24:13;97882.28;;;19.60;74.48
19751;BME280;4663;49.120;9.730;2023-09-19T06:26:38;97885.00;;;19.60;73.60
19751;BME280;4663;49.120;9.730;2023-09-19T06:29:04;97884.19;;;19.53;73.13
19751;BME280;4663;49.120;9.730;2023-09-19T06:31:32;97893.25;;;19.14;73.39
19751;BME280;4663;49.120;9.730;2023-09-19T06:33:58;97889.97;;;19.63;72.81
19751;BME280;4663;49.120;9.730;2023-09-19T06:36:24;97895.63;;;19.36;73.41
19751;BME280;4663;49.120;9.730;2023-09-19T06:38:49;97883.41;;;19.46;72.45
19751;BME280;4663;49.120;9.730;2023-09-19T06:41:17;97879.25;;;19.94;71.51
19751;BME280;4663;49.120;9.730;2023-09-19T06:43:43;97883.94;;;20.05;71.98
19751;BME280;4663;49.120;9.730;2023-09-19T06:46:09;97893.31;;;19.91;71.77
19751;BME280;4663;49.120;9.730;2023-09-19T06:48:35;97876.22;;;20.02;71.57
19751;BME280;4663;49.120;9.730;2023-09-19T06:51:00;97883.50;;;20.27;70.84
19751;BME280;4663;49.120;9.730;2023-09-19T06:53:31;97891.38;;;19.73;70.25
19751;BME280;4663;49.120;9.730;2023-09-19T06:55:57;97898.44;;;20.43;69.26
19751;BME280;4663;49.120;9.730;2023-09-19T06:58:23;97891.09;;;20.93;68.22
19751;BME280;4663;49.120;9.730;2023-09-19T07:00:48;97895.38;;;19.70;69.74
19751;BME280;4663;49.120;9.730;2023-09-19T07:03:15;97908.59;;;20.11;70.46
19751;BME280;4663;49.120;9.730;2023-09-19T07:05:44;97908.59;;;20.11;69.86
19751;BME280;4663;49.120;9.730;2023-09-19T07:08:10;97908.56;;;20.36;69.74
19751;BME280;4663;49.120;9.730;2023-09-19T07:10:38;97908.00;;;20.65;69.01
19751;BME280;4663;49.120;9.730;2023-09-19T07:13:07;97913.53;;;20.39;69.92
19751;BME280;4663;49.120;9.730;2023-09-19T07:15:36;97906.13;;;20.65;69.82
19751;BME280;4663;49.120;9.730;2023-09-19T07:18:05;97906.47;;;20.69;69.35
19751;BME280;4663;49.120;9.730;2023-09-19T07:20:31;97904.56;;;20.58;69.43
19751;BME280;4663;49.120;9.730;2023-09-19T07:23:00;97908.56;;;20.36;69.43
19751;BME280;4663;49.120;9.730;2023-09-19T07:25:26;97912.69;;;20.76;68.75
19751;BME280;4663;49.120;9.730;2023-09-19T07:27:52;97915.72;;;20.68;68.79
19751;BME280;4663;49.120;9.730;2023-09-19T07:30:17;97926.75;;;21.23;68.54
19751;BME280;4663;49.120;9.730;2023-09-19T07:32:42;97917.56;;;21.36;66.35
19751;BME280;4663;49.120;9.730;2023-09-19T07:35:08;97932.50;;;20.27;68.16
19751;BME280;4663;49.120;9.730;2023-09-19T07:37:34;97930.31;;;21.66;65.35
19751;BME280;4663;49.120;9.730;2023-09-19T07:40:00;97931.31;;;22.07;64.65
19751;BME280;4663;49.120;9.730;2023-09-19T07:42:35;97932.13;;;21.84;65.08
19751;BME280;4663;49.120;9.730;2023-09-19T07:45:06;97940.28;;;21.72;65.00
19751;BME280;4663;49.120;9.730;2023-09-19T07:47:33;97932.44;;;22.71;63.14
19751;BME280;4663;49.120;9.730;2023-09-19T07:49:59;97935.66;;;21.84;64.00
19751;BME280;4663;49.120;9.730;2023-09-19T07:52:27;97946.50;;;22.27;63.40
19751;BME280;4663;49.120;9.730;2023-09-19T07:54:53;97948.50;;;22.20;63.51
19751;BME280;4663;49.120;9.730;2023-09-19T07:57:19;97957.59;;;21.66;64.32
19751;BME280;4663;49.120;9.730;2023-09-19T07:59:46;97945.16;;;21.82;64.21
19751;BME280;4663;49.120;9.730;2023-09-19T08:02:11;97954.72;;;21.91;63.42
19751;BME280;4663;49.120;9.730;2023-09-19T08:04:44;97947.84;;;22.13;62.62
19751;BME280;4663;49.120;9.730;2023-09-19T08:07:11;97950.75;;;21.32;63.45
19751;BME280;4663;49.120;9.730;2023-09-19T08:09:36;97957.91;;;21.88;62.92
19751;BME280;4663;49.120;9.730;2023-09-19T08:12:04;97956.69;;;22.44;61.93
19751;BME280;4663;49.120;9.730;2023-09-19T08:14:29;97966.94;;;22.37;61.73
19751;BME280;4663;49.120;9.730;2023-09-19T08:16:58;97976.41;;;22.70;60.88
19751;BME280;4663;49.120;9.730;2023-09-19T08:19:24;97974.69;;;23.51;60.80
19751;BME280;4663;49.120;9.730;2023-09-19T08:21:55;97974.06;;;23.61;58.73
19751;BME280;4663;49.120;9.730;2023-09-19T08:24:22;97976.72;;;22.85;59.91
19751;BME280;4663;49.120;9.730;2023-09-19T08:26:48;97971.22;;;22.08;60.21
19751;BME280;4663;49.120;9.730;2023-09-19T08:29:13;97974.00;;;24.07;57.87
19751;BME280;4663;49.120;9.730;2023-09-19T08:31:39;97987.53;;;24.31;57.79
19751;BME280;4663;49.120;9.730;2023-09-19T08:34:04;97993.34;;;24.18;58.11
19751;BME280;4663;49.120;9.730;2023-09-19T08:36:30;97982.13;;;22.68;58.68
19751;BME280;4663;49.120;9.730;2023-09-19T08:38:56;97979.91;;;23.99;57.93
19751;BME280;4663;49.120;9.730;2023-09-19T08:41:21;97995.09;;;23.02;59.95
19751;BME280;4663;49.120;9.730;2023-09-19T08:43:46;97984.69;;;24.26;57.86
19751;BME280;4663;49.120;9.730;2023-09-19T08:46:16;97995.34;;;23.42;59.37
19751;BME280;4663;49.120;9.730;2023-09-19T08:49:04;97985.78;;;22.86;58.00
19751;BME280;4663;49.120;9.730;2023-09-19T08:51:41;97977.25;;;24.04;56.48
19751;BME280;4663;49.120;9.730;2023-09-19T08:54:12;97978.53;;;24.75;55.09
19751;BME280;4663;49.120;9.730;2023-09-19T08:56:41;97992.28;;;21.46;58.36
19751;BME280;4663;49.120;9.730;2023-09-19T08:59:08;97978.66;;;23.14;55.37
19751;BME280;4663;49.120;9.730;2023-09-19T09:01:35;97995.78;;;22.68;57.30
19751;BME280;4663;49.120;9.730;2023-09-19T09:04:02;97999.56;;;23.49;57.89
19751;BME280;4663;49.120;9.730;2023-09-19T09:06:28;97990.66;;;23.13;56.92
19751;BME280;4663;49.120;9.730;2023-09-19T09:08:55;97991.16;;;22.69;56.96
19751;BME280;4663;49.120;9.730;2023-09-19T09:11:21;97977.66;;;22.91;56.32
19751;BME280;4663;49.120;9.730;2023-09-19T09:13:47;97988.19;;;22.22;57.71
19751;BME280;4663;49.120;9.730;2023-09-19T09:16:14;98003.00;;;22.86;58.38
19751;BME280;4663;49.120;9.730;2023-09-19T09:18:43;98000.22;;;23.40;57.74
19751;BME280;4663;49.120;9.730;2023-09-19T09:21:09;97992.00;;;23.69;56.01
19751;BME280;4663;49.120;9.730;2023-09-19T09:23:35;98003.75;;;22.70;57.89
19751;BME280;4663;49.120;9.730;2023-09-19T09:26:00;98010.41;;;23.90;56.88
19751;BME280;4663;49.120;9.730;2023-09-19T09:28:32;98004.00;;;22.08;57.43
19751;BME280;4663;49.120;9.730;2023-09-19T09:30:59;98008.00;;;22.78;58.05
19751;BME280;4663;49.120;9.730;2023-09-19T09:33:25;98013.94;;;22.86;57.75
19751;BME280;4663;49.120;9.730;2023-09-19T09:35:58;97983.88;;;23.91;55.29
19751;BME280;4663;49.120;9.730;2023-09-19T09:38:27;98011.44;;;24.19;56.08
19751;BME280;4663;49.120;9.730;2023-09-19T09:40:55;98005.81;;;23.45;56.21
19751;BME280;4663;49.120;9.730;2023-09-19T09:43:39;98006.84;;;23.73;56.01
19751;BME280;4663;49.120;9.730;2023-09-19T09:46:16;98011.19;;;23.86;55.89
19751;BME280;4663;49.120;9.730;2023-09-19T09:48:55;98008.91;;;23.66;56.45
19751;BME280;4663;49.120;9.730;2023-09-19T09:51:50;98020.81;;;22.89;58.56
19751;BME280;4663;49.120;9.730;2023-09-19T09:54:28;98020.13;;;22.22;59.17
19751;BME280;4663;49.120;9.730;2023-09-19T09:57:09;98018.84;;;23.13;58.62
19751;BME280;4663;49.120;9.730;2023-09-19T09:59:50;97995.31;;;23.12;56.79
19751;BME280;4663;49.120;9.730;2023-09-19T10:02:20;97992.69;;;22.29;58.02
19751;BME280;4663;49.120;9.730;2023-09-19T10:04:53;97983.53;;;22.83;57.55
19751;BME280;4663;49.120;9.730;2023-09-19T10:07:39;98000.78;;;22.71;57.57
19751;BME280;4663;49.120;9.730;2023-09-19T10:10:06;98000.91;;;22.17;58.67
19751;BME280;4663;49.120;9.730;2023-09-19T10:12:43;98003.88;;;22.63;59.24
19751;BME280;4663;49.120;9.730;2023-09-19T10:15:11;97987.94;;;22.24;57.65
19751;BME280;4663;49.120;9.730;2023-09-19T10:17:43;97999.22;;;23.17;57.82
19751;BME280;4663;49.120;9.730;2023-09-19T10:20:14;98005.88;;;22.44;57.62
19751;BME280;4663;49.120;9.730;2023-09-19T10:22:52;97999.19;;;23.29;56.26
19751;BME280;4663;49.120;9.730;2023-09-19T10:25:31;97989.09;;;23.75;56.34
19751;BME280;4663;49.120;9.730;2023-09-19T10:28:00;98006.25;;;23.71;56.23
19751;BME280;4663;49.120;9.730;2023-09-19T10:30:28;97994.56;;;23.93;56.28
19751;BME280;4663;49.120;9.730;2023-09-19T10:33:03;97995.19;;;24.51;55.57
19751;BME280;4663;49.120;9.730;2023-09-19T10:35:32;97993.81;;;24.49;54.73
19751;BME280;4663;49.120;9.730;2023-09-19T10:38:00;97993.16;;;23.73;56.33
19751;BME280;4663;49.120;9.730;2023-09-19T10:40:29;97999.06;;;25.40;54.10
19751;BME280;4663;49.120;9.730;2023-09-19T10:43:05;97992.28;;;24.58;54.15
19751;BME280;4663;49.120;9.730;2023-09-19T10:45:32;97991.50;;;25.02;53.03
19751;BME280;4663;49.120;9.730;2023-09-19T10:47:59;97986.53;;;24.77;53.29
19751;BME280;4663;49.120;9.730;2023-09-19T10:50:24;97988.44;;;23.85;53.51
19751;BME280;4663;49.120;9.730;2023-09-19T10:52:53;98000.34;;;24.08;54.19
19751;BME280;4663;49.120;9.730;2023-09-19T10:55:25;97992.22;;;24.53;52.73
19751;BME280;4663;49.120;9.730;2023-09-19T10:57:53;97988.09;;;25.17;53.04
19751;BME280;4663;49.120;9.730;2023-09-19T11:00:18;98005.94;;;23.84;54.02
19751;BME280;4663;49.120;9.730;2023-09-19T11:05:39;97998.81;;;24.35;52.85
19751;BME280;4663;49.120;9.730;2023-09-19T11:08:06;97999.94;;;23.53;55.20
19751;BME280;4663;49.120;9.730;2023-09-19T11:10:47;97991.03;;;23.17;56.09
19751;BME280;4663;49.120;9.730;2023-09-19T11:26:47;97983.06;;;24.08;55.48
19751;BME280;4663;49.120;9.730;2023-09-19T11:29:26;97971.06;;;23.62;54.60
19751;BME280;4663;49.120;9.730;2023-09-19T11:31:52;97964.34;;;24.78;53.88
19751;BME280;4663;49.120;9.730;2023-09-19T11:37:01;97957.50;;;24.02;54.17
19751;BME280;4663;49.120;9.730;2023-09-19T11:39:29;97974.56;;;23.92;54.54
19751;BME280;4663;49.120;9.730;2023-09-19T11:41:54;97990.03;;;24.15;56.61
19751;BME280;4663;49.120;9.730;2023-09-19T11:44:32;97972.50;;;24.17;54.69
19751;BME280;4663;49.120;9.730;2023-09-19T11:47:00;97970.03;;;24.15;54.57
19751;BME280;4663;49.120;9.730;2023-09-19T11:49:29;97959.94;;;24.38;54.25
19751;BME280;4663;49.120;9.730;2023-09-19T11:51:57;97967.53;;;23.04;55.67
19751;BME280;4663;49.120;9.730;2023-09-19T11:54:26;97961.75;;;25.16;53.98
19751;BME280;4663;49.120;9.730;2023-09-19T11:56:57;97968.16;;;24.38;54.31
19751;BME280;4663;49.120;9.730;2023-09-19T11:59:24;97961.56;;;24.17;54.25
19751;BME280;4663;49.120;9.730;2023-09-19T12:01:51;97953.59;;;24.54;53.75
19751;BME280;4663;49.120;9.730;2023-09-19T12:07:07;97957.31;;;23.92;54.21
19751;BME280;4663;49.120;9.730;2023-09-19T12:09:39;97947.34;;;23.85;54.13
19751;BME280;4663;49.120;9.730;2023-09-19T12:12:06;97966.38;;;24.09;55.45
19751;BME280;4663;49.120;9.730;2023-09-19T12:14:31;97963.88;;;23.27;56.19
19751;BME280;4663;49.120;9.730;2023-09-19T12:16:57;97940.06;;;24.48;53.23
19751;BME280;4663;49.120;9.730;2023-09-19T12:19:25;97934.69;;;24.36;53.21
19751;BME280;4663;49.120;9.730;2023-09-19T12:24:21;97934.69;;;24.36;52.50
19751;BME280;4663;49.120;9.730;2023-09-19T12:26:47;97941.19;;;24.30;52.53
19751;BME280;4663;49.120;9.730;2023-09-19T12:29:22;97941.97;;;24.08;52.72
19751;BME280;4663;49.120;9.730;2023-09-19T12:31:52;97938.75;;;24.11;53.54
19751;BME280;4663;49.120;9.730;2023-09-19T12:34:29;97937.69;;;24.57;52.28
19751;BME280;4663;49.120;9.730;2023-09-19T12:37:07;97938.94;;;24.44;53.47
19751;BME280;4663;49.120;9.730;2023-09-19T12:39:45;97928.81;;;24.66;52.62
19751;BME280;4663;49.120;9.730;2023-09-19T12:42:26;97933.13;;;24.23;53.52
19751;BME280;4663;49.120;9.730;2023-09-19T12:45:01;97913.38;;;24.60;52.89
19751;BME280;4663;49.120;9.730;2023-09-19T12:48:21;97910.72;;;24.65;51.72
19751;BME280;4663;49.120;9.730;2023-09-19T12:51:15;97934.69;;;24.36;53.56
19751;BME280;4663;49.120;9.730;2023-09-19T12:53:57;97910.81;;;24.31;52.19
19751;BME280;4663;49.120;9.730;2023-09-19T12:56:26;97905.19;;;23.86;52.49
19751;BME280;4663;49.120;9.730;2023-09-19T12:59:07;97917.34;;;23.56;53.30
19751;BME280;4663;49.120;9.730;2023-09-19T13:01:39;97911.53;;;24.04;52.02
19751;BME280;4663;49.120;9.730;2023-09-19T13:04:21;97899.81;;;23.92;51.74
19751;BME280;4663;49.120;9.730;2023-09-19T13:07:05;97898.03;;;23.97;51.57
19751;BME280;4663;49.120;9.730;2023-09-19T13:09:39;97899.41;;;23.66;52.52
19751;BME280;4663;49.120;9.730;2023-09-19T13:21:46;97907.13;;;23.69;52.39
19751;BME280;4663;49.120;9.730;2023-09-19T13:24:24;97901.56;;;23.98;51.68
19751;BME280;4663;49.120;9.730;2023-09-19T13:27:31;97913.50;;;23.40;53.30
19751;BME280;4663;49.120;9.730;2023-09-19T13:30:27;97892.91;;;24.06;52.11
19751;BME280;4663;49.120;9.730;2023-09-19T13:33:18;97911.53;;;23.70;53.65
19751;BME280;4663;49.120;9.730;2023-09-19T13:35:47;97911.94;;;23.61;54.65
19751;BME280;4663;49.120;9.730;2023-09-19T13:38:21;97897.72;;;24.38;52.69
19751;BME280;4663;49.120;9.730;2023-09-19T13:44:19;97908.47;;;23.20;55.63
19751;BME280;4663;49.120;9.730;2023-09-19T13:46:45;97893.47;;;24.25;51.83
19751;BME280;4663;49.120;9.730;2023-09-19T13:49:16;97901.50;;;24.32;52.38
19751;BME280;4663;49.120;9.730;2023-09-19T13:51:58;97900.00;;;23.68;52.05
19751;BME280;4663;49.120;9.730;2023-09-19T13:54:35;97871.91;;;23.95;51.09
19751;BME280;4663;49.120;9.730;2023-09-19T13:57:04;97888.63;;;23.76;52.15
19751;BME280;4663;49.120;9.730;2023-09-19T14:02:49;97878.91;;;23.85;51.99
19751;BME280;4663;49.120;9.730;2023-09-19T14:05:28;97869.28;;;23.31;52.03
19751;BME280;4663;49.120;9.730;2023-09-19T14:07:57;97888.13;;;23.62;53.68
19751;BME280;4663;49.120;9.730;2023-09-19T14:10:42;97871.53;;;23.69;52.03
19751;BME280;4663;49.120;9.730;2023-09-19T14:13:08;97876.28;;;23.56;52.64
19751;BME280;4663;49.120;9.730;2023-09-19T14:15:46;97875.19;;;23.40;52.16